createdAt,value
2018-06-28T00:01:08.260Z,55.11
2018-06-28T00:03:36.249Z,54.49
2018-06-28T00:06:03.865Z,54.98
2018-06-28T00:08:32.181Z,55.17
2018-06-28T00:10:59.781Z,54.99
2018-06-28T00:13:27.341Z,54.69
2018-06-28T00:15:55.263Z,54.79
2018-06-28T00:18:23.166Z,54.22
2018-06-28T00:20:51.074Z,54.96
2018-06-28T00:23:18.639Z,54.26
2018-06-28T00:25:46.566Z,54.84
2018-06-28T00:28:14.795Z,54.73
2018-06-28T00:30:42.397Z,54.34
2018-06-28T00:33:10.489Z,53.92
2018-06-28T00:35:38.444Z,53.86
2018-06-28T00:38:06.141Z,54.11
2018-06-28T00:40:34.007Z,54.51
2018-06-28T00:43:01.620Z,54.22
2018-06-28T00:45:29.215Z,54.64
2018-06-28T00:47:57.141Z,54.25
2018-06-28T00:50:24.754Z,54.71
2018-06-28T00:52:52.980Z,54.75
2018-06-28T00:55:20.603Z,54.36
2018-06-28T00:57:48.459Z,55.29
2018-06-28T01:00:16.431Z,55.07
2018-06-28T01:02:44.059Z,54.49
2018-06-28T01:05:12.823Z,54.58
2018-06-28T01:07:40.698Z,54.48
2018-06-28T01:10:08.286Z,54.80
2018-06-28T01:12:35.987Z,55.46
2018-06-28T01:15:03.919Z,54.84
2018-06-28T01:17:31.890Z,55.13
2018-06-28T01:19:59.505Z,55.81
2018-06-28T01:22:27.439Z,55.77
2018-06-28T01:24:55.173Z,55.46
2018-06-28T01:27:22.766Z,55.18
2018-06-28T01:29:50.586Z,55.59
2018-06-28T01:32:18.437Z,55.17
2018-06-28T01:34:46.044Z,55.99
2018-06-28T01:37:14.016Z,55.74
2018-06-28T01:39:41.602Z,55.85
2018-06-28T01:43:19.231Z,56.72
2018-06-28T01:45:46.857Z,56.05
2018-06-28T01:48:14.497Z,56.02
2018-06-28T01:50:42.366Z,56.02
2018-06-28T01:53:10.019Z,56.24
2018-06-28T01:55:37.641Z,56.78
2018-06-28T01:58:05.254Z,56.93
2018-06-28T02:00:33.421Z,56.55
2018-06-28T02:03:01.337Z,56.58
2018-06-28T02:05:28.949Z,56.37
2018-06-28T02:07:56.956Z,56.16
2018-06-28T02:10:24.889Z,55.80
2018-06-28T02:12:52.515Z,56.34
2018-06-28T02:15:20.483Z,55.71
2018-06-28T02:17:48.223Z,56.25
2018-06-28T02:20:16.154Z,55.67
2018-06-28T02:22:43.732Z,55.74
2018-06-28T02:25:11.395Z,56.44
2018-06-28T02:27:39.046Z,55.80
2018-06-28T02:30:06.657Z,56.24
2018-06-28T02:32:34.609Z,55.95
2018-06-28T02:35:02.610Z,56.27
2018-06-28T02:37:32.038Z,55.99
2018-06-28T02:40:00.486Z,56.68
2018-06-28T02:42:28.715Z,56.28
2018-06-28T02:44:56.341Z,56.79
2018-06-28T02:47:24.278Z,57.38
2018-06-28T02:49:52.031Z,57.36
2018-06-28T02:52:19.950Z,57.13
2018-06-28T02:54:47.553Z,56.87
2018-06-28T02:57:15.237Z,56.87
2018-06-28T02:59:42.833Z,56.72
2018-06-28T03:02:10.660Z,56.77
2018-06-28T03:04:38.294Z,57.52
2018-06-28T03:07:06.128Z,57.57
2018-06-28T03:09:33.857Z,57.41
2018-06-28T03:12:01.456Z,57.48
2018-06-28T03:14:29.034Z,57.52
2018-06-28T03:16:56.731Z,56.64
2018-06-28T03:19:24.522Z,56.32
2018-06-28T03:21:52.108Z,56.12
2018-06-28T03:24:19.719Z,55.70
2018-06-28T03:26:47.686Z,56.18
2018-06-28T03:29:15.303Z,55.67
2018-06-28T03:31:43.230Z,55.25
2018-06-28T03:34:10.857Z,55.44
2018-06-28T03:36:39.169Z,55.68
2018-06-28T03:39:09.763Z,55.64
2018-06-28T03:41:37.434Z,56.18
2018-06-28T03:44:05.303Z,56.11
2018-06-28T03:46:33.155Z,55.29
2018-06-28T03:49:01.355Z,55.69
2018-06-28T03:51:28.961Z,55.32
2018-06-28T03:53:56.892Z,56.04
2018-06-28T03:56:24.961Z,55.38
2018-06-28T03:58:52.885Z,55.54
2018-06-28T04:01:20.662Z,55.36
2018-06-28T04:03:48.272Z,55.27
2018-06-28T04:06:16.149Z,55.27
2018-06-28T04:08:43.849Z,55.26
2018-06-28T04:11:11.530Z,55.83
2018-06-28T04:13:39.555Z,55.76
2018-06-28T04:16:07.141Z,55.77
2018-06-28T04:18:34.734Z,55.83
2018-06-28T04:21:02.795Z,55.90
2018-06-28T04:23:30.362Z,55.14
2018-06-28T04:25:58.569Z,55.36
2018-06-28T04:28:26.306Z,55.98
2018-06-28T04:30:54.240Z,55.85
2018-06-28T04:33:22.189Z,55.17
2018-06-28T04:35:49.796Z,55.07
2018-06-28T04:38:17.642Z,55.73
2018-06-28T04:40:46.058Z,54.83
2018-06-28T04:43:14.366Z,55.21
2018-06-28T04:45:42.009Z,54.69
2018-06-28T04:48:09.929Z,55.36
2018-06-28T04:50:37.794Z,55.51
2018-06-28T04:53:05.490Z,54.77
2018-06-28T04:55:33.124Z,55.51
2018-06-28T04:58:01.041Z,54.82
2018-06-28T05:00:29.017Z,54.93
2018-06-28T05:02:56.659Z,55.39
2018-06-28T05:05:24.628Z,54.53
2018-06-28T05:07:52.489Z,54.31
2018-06-28T05:10:20.327Z,54.31
2018-06-28T05:12:48.047Z,54.42
2018-06-28T05:15:15.720Z,54.81
2018-06-28T05:17:43.386Z,54.04
2018-06-28T05:20:11.486Z,54.19
2018-06-28T05:22:39.164Z,54.62
2018-06-28T05:25:06.811Z,54.59
2018-06-28T05:27:35.073Z,55.96
2018-06-28T05:30:03.242Z,56.26
2018-06-28T05:32:31.100Z,55.49
2018-06-28T05:34:58.843Z,56.06
2018-06-28T05:37:26.745Z,56.12
2018-06-28T05:39:54.600Z,55.40
2018-06-28T05:42:22.286Z,55.76
2018-06-28T05:44:50.155Z,56.11
2018-06-28T05:47:18.088Z,55.28
2018-06-28T05:49:45.948Z,55.52
2018-06-28T05:52:13.881Z,55.78
2018-06-28T05:54:42.433Z,55.80
2018-06-28T05:57:10.327Z,55.58
2018-06-28T05:59:37.977Z,55.58
2018-06-28T06:02:06.149Z,55.05
2018-06-28T06:04:33.817Z,55.32
2018-06-28T06:07:01.946Z,55.38
2018-06-28T06:09:29.971Z,55.05
2018-06-28T06:11:57.678Z,55.34
2018-06-28T06:14:25.354Z,55.65
2018-06-28T06:16:53.713Z,54.88
2018-06-28T06:19:21.920Z,54.39
2018-06-28T06:21:49.712Z,55.18
2018-06-28T06:24:17.409Z,55.45
2018-06-28T06:26:45.480Z,55.04
2018-06-28T06:29:13.520Z,54.94
2018-06-28T06:31:41.438Z,54.49
2018-06-28T06:34:09.507Z,54.08
2018-06-28T06:36:37.555Z,54.17
2018-06-28T06:39:08.446Z,54.66
2018-06-28T06:41:36.066Z,54.05
2018-06-28T06:44:05.230Z,54.55
2018-06-28T06:46:33.321Z,54.40
2018-06-28T06:49:01.072Z,54.07
2018-06-28T06:51:28.722Z,54.01
2018-06-28T06:53:56.363Z,53.76
2018-06-28T06:56:24.381Z,54.36
2018-06-28T06:58:52.107Z,54.23
2018-06-28T07:01:19.730Z,53.53
2018-06-28T07:03:47.802Z,54.32
2018-06-28T07:06:15.870Z,54.13
2018-06-28T07:08:43.496Z,53.43
2018-06-28T07:11:11.465Z,53.53
2018-06-28T07:13:39.440Z,53.97
2018-06-28T07:16:07.353Z,53.95
2018-06-28T07:18:35.272Z,53.72
2018-06-28T07:21:03.550Z,53.24
2018-06-28T07:23:31.482Z,53.84
2018-06-28T07:25:59.382Z,53.20
2018-06-28T07:28:27.454Z,53.82
2018-06-28T07:30:55.046Z,53.68
2018-06-28T07:33:22.791Z,53.55
2018-06-28T07:35:50.554Z,53.00
2018-06-28T07:38:18.426Z,53.18
2018-06-28T07:40:46.081Z,53.23
2018-06-28T07:43:14.629Z,53.02
2018-06-28T07:45:42.521Z,53.55
2018-06-28T07:48:10.202Z,53.54
2018-06-28T07:50:37.849Z,53.66
2018-06-28T07:53:05.509Z,53.42
2018-06-28T07:55:33.160Z,53.57
2018-06-28T07:58:01.348Z,52.99
2018-06-28T08:00:29.121Z,52.75
2018-06-28T08:02:57.008Z,53.20
2018-06-28T08:05:24.655Z,53.39
2018-06-28T08:07:52.565Z,53.21
2018-06-28T08:10:20.548Z,52.77
2018-06-28T08:12:48.207Z,53.36
2018-06-28T08:15:16.462Z,52.75
2018-06-28T08:17:44.470Z,53.42
2018-06-28T08:20:12.127Z,52.79
2018-06-28T08:22:39.777Z,53.34
2018-06-28T08:25:07.798Z,53.33
2018-06-28T08:27:35.416Z,53.19
2018-06-28T08:30:03.058Z,52.68
2018-06-28T08:32:30.822Z,52.83
2018-06-28T08:34:58.425Z,53.25
2018-06-28T08:37:26.045Z,52.79
2018-06-28T08:39:53.960Z,53.09
2018-06-28T08:42:21.669Z,52.45
2018-06-28T08:44:49.564Z,52.21
2018-06-28T08:47:17.530Z,52.41
2018-06-28T08:49:45.199Z,52.89
2018-06-28T08:52:12.820Z,53.03
2018-06-28T08:54:40.968Z,52.22
2018-06-28T08:57:08.565Z,52.95
2018-06-28T08:59:36.434Z,52.31
2018-06-28T09:02:04.381Z,51.98
2018-06-28T09:04:32.338Z,51.97
2018-06-28T09:07:00.205Z,52.78
2018-06-28T09:09:27.841Z,52.77
2018-06-28T09:11:55.480Z,52.54
2018-06-28T09:14:23.455Z,51.92
2018-06-28T09:16:51.307Z,52.62
2018-06-28T09:19:18.928Z,51.89
2018-06-28T09:21:46.685Z,51.84
2018-06-28T09:24:14.939Z,52.54
2018-06-28T09:26:42.583Z,51.81
2018-06-28T09:29:10.231Z,52.29
2018-06-28T09:31:38.213Z,52.42
2018-06-28T09:34:06.376Z,51.79
2018-06-28T09:36:34.488Z,52.48
2018-06-28T09:39:02.449Z,51.70
2018-06-28T09:41:30.694Z,51.42
2018-06-28T09:43:58.621Z,51.62
2018-06-28T09:46:26.569Z,51.47
2018-06-28T09:48:54.669Z,50.69
2018-06-28T09:51:22.577Z,51.24
2018-06-28T09:53:50.192Z,50.45
2018-06-28T09:56:17.845Z,50.39
2018-06-28T09:58:45.520Z,49.75
2018-06-28T10:01:13.217Z,48.94
2018-06-28T10:03:41.097Z,49.39
2018-06-28T10:06:09.065Z,49.20
2018-06-28T10:08:36.824Z,48.64
2018-06-28T10:11:05.008Z,49.15
2018-06-28T10:13:32.661Z,48.91
2018-06-28T10:16:00.318Z,49.71
2018-06-28T10:18:28.307Z,49.56
2018-06-28T10:20:56.165Z,50.45
2018-06-28T10:23:23.867Z,50.45
2018-06-28T10:25:52.102Z,50.52
2018-06-28T10:28:19.975Z,50.92
2018-06-28T10:30:48.024Z,50.08
2018-06-28T10:33:15.846Z,50.64
2018-06-28T10:35:43.923Z,49.92
2018-06-28T10:38:11.605Z,50.24
2018-06-28T10:40:39.493Z,50.96
2018-06-28T10:43:09.053Z,50.51
2018-06-28T10:45:36.719Z,50.59
2018-06-28T10:48:04.438Z,50.27
2018-06-28T10:50:32.134Z,50.34
2018-06-28T10:52:59.770Z,50.68
2018-06-28T10:55:27.420Z,50.93
2018-06-28T10:57:55.443Z,51.36
2018-06-28T11:00:23.353Z,51.00
2018-06-28T11:02:50.960Z,50.64
2018-06-28T11:05:18.679Z,50.77
2018-06-28T11:07:46.486Z,50.96
2018-06-28T11:10:14.149Z,50.32
2018-06-28T11:12:41.952Z,50.10
2018-06-28T11:15:09.840Z,50.05
2018-06-28T11:17:37.483Z,50.08
2018-06-28T11:20:05.160Z,50.03
2018-06-28T11:22:33.137Z,49.71
2018-06-28T11:25:00.776Z,49.39
2018-06-28T11:27:28.455Z,50.10
2018-06-28T11:29:56.228Z,49.28
2018-06-28T11:32:23.888Z,49.00
2018-06-28T11:34:51.560Z,49.38
2018-06-28T11:37:19.203Z,49.73
2018-06-28T11:39:46.845Z,49.11
2018-06-28T11:42:15.222Z,49.67
2018-06-28T11:44:43.731Z,48.99
2018-06-28T11:47:11.444Z,49.09
2018-06-28T11:49:39.717Z,48.57
2018-06-28T11:52:07.379Z,49.39
2018-06-28T11:54:35.308Z,48.89
2018-06-28T11:57:02.972Z,49.00
2018-06-28T11:59:30.594Z,47.57
2018-06-28T12:01:58.491Z,48.55
2018-06-28T12:04:26.283Z,48.42
2018-06-28T12:06:53.921Z,49.35
2018-06-28T12:09:23.484Z,48.58
2018-06-28T12:11:51.724Z,48.75
2018-06-28T12:14:19.372Z,48.36
2018-06-28T12:16:47.260Z,48.68
2018-06-28T12:19:17.869Z,48.71
2018-06-28T12:21:46.048Z,48.05
2018-06-28T12:24:13.947Z,48.18
2018-06-28T12:26:41.564Z,47.31
2018-06-28T12:29:09.230Z,47.76
2018-06-28T12:31:36.856Z,47.61
2018-06-28T12:34:04.888Z,47.10
2018-06-28T12:36:33.063Z,47.61
2018-06-28T12:39:01.449Z,48.02
2018-06-28T12:41:29.334Z,47.35
2018-06-28T12:43:56.971Z,47.72
2018-06-28T12:46:36.296Z,47.49
2018-06-28T12:49:03.876Z,47.26
2018-06-28T12:51:42.843Z,46.56
2018-06-28T12:54:10.758Z,47.28
2018-06-28T12:56:39.553Z,46.42
2018-06-28T12:59:08.754Z,46.06
2018-06-28T13:01:36.533Z,46.47
2018-06-28T13:04:04.202Z,45.90
2018-06-28T13:06:32.118Z,47.00
2018-06-28T13:09:00.768Z,46.70
2018-06-28T13:11:29.207Z,46.68
2018-06-28T13:13:56.817Z,46.67
2018-06-28T13:16:25.882Z,46.23
2018-06-28T13:18:53.547Z,46.29
2018-06-28T13:21:21.389Z,46.07
2018-06-28T13:23:50.685Z,46.44
2018-06-28T13:26:18.875Z,46.04
2018-06-28T13:28:46.615Z,45.67
2018-06-28T13:31:14.265Z,46.40
2018-06-28T13:33:42.271Z,45.91
2018-06-28T13:36:10.035Z,45.08
2018-06-28T13:38:38.260Z,45.22
2018-06-28T13:41:06.311Z,46.12
2018-06-28T13:43:33.932Z,45.88
2018-06-28T13:46:01.922Z,45.88
2018-06-28T13:48:29.608Z,45.21
2018-06-28T13:50:58.144Z,44.75
2018-06-28T13:53:26.063Z,44.97
2018-06-28T13:55:53.686Z,45.05
2018-06-28T13:58:21.631Z,44.70
2018-06-28T14:00:49.261Z,45.37
2018-06-28T14:03:17.349Z,45.15
2018-06-28T14:05:44.966Z,45.32
2018-06-28T14:08:12.823Z,45.19
2018-06-28T14:10:40.661Z,45.01
2018-06-28T14:13:08.888Z,43.90
2018-06-28T14:15:36.940Z,45.09
2018-06-28T14:18:04.633Z,43.93
2018-06-28T14:20:32.329Z,44.19
2018-06-28T14:22:59.963Z,44.71
2018-06-28T14:25:28.377Z,44.83
2018-06-28T14:27:56.126Z,43.59
2018-06-28T14:30:23.807Z,43.35
2018-06-28T14:32:51.895Z,43.23
2018-06-28T14:35:19.817Z,41.02
2018-06-28T14:37:49.663Z,38.10
2018-06-28T14:40:17.941Z,36.17
2018-06-28T14:42:45.564Z,34.43
2018-06-28T14:45:13.352Z,33.77
2018-06-28T14:47:41.256Z,33.42
2018-06-28T14:50:08.898Z,33.18
2018-06-28T14:52:36.872Z,32.98
2018-06-28T14:55:05.115Z,32.73
2018-06-28T14:57:32.766Z,32.41
2018-06-28T15:00:00.434Z,32.77
2018-06-28T15:02:28.373Z,33.45
2018-06-28T15:04:56.045Z,34.08
2018-06-28T15:07:24.012Z,36.61
2018-06-28T15:09:52.957Z,38.50
2018-06-28T15:12:20.593Z,40.61
2018-06-28T15:14:48.470Z,41.01
2018-06-28T15:17:16.146Z,41.09
2018-06-28T15:19:43.774Z,40.06
2018-06-28T15:22:11.749Z,41.12
2018-06-28T15:24:39.415Z,41.53
2018-06-28T15:27:07.463Z,41.83
2018-06-28T15:29:35.126Z,41.90
2018-06-28T15:32:02.761Z,42.17
2018-06-28T15:34:30.411Z,41.69
2018-06-28T15:36:58.201Z,42.09
2018-06-28T15:39:26.576Z,42.30
2018-06-28T15:41:54.582Z,42.87
2018-06-28T15:44:22.285Z,42.92
2018-06-28T15:46:49.907Z,42.44
2018-06-28T15:49:17.954Z,42.97
2018-06-28T15:51:45.703Z,42.98
2018-06-28T15:54:13.922Z,43.01
2018-06-28T15:56:41.545Z,42.39
2018-06-28T15:59:09.224Z,42.31
2018-06-28T16:01:36.834Z,42.34
2018-06-28T16:04:04.663Z,41.69
2018-06-28T16:06:32.646Z,42.36
2018-06-28T16:09:00.339Z,42.43
2018-06-28T16:11:28.653Z,42.06
2018-06-28T16:13:56.308Z,43.07
2018-06-28T16:16:23.933Z,42.67
2018-06-28T16:18:51.737Z,42.96
2018-06-28T16:21:19.332Z,42.59
2018-06-28T16:23:47.217Z,42.76
2018-06-28T16:26:14.910Z,42.69
2018-06-28T16:28:42.575Z,41.59
2018-06-28T16:31:10.196Z,41.23
2018-06-28T16:33:37.894Z,40.33
2018-06-28T16:36:05.659Z,39.52
2018-06-28T16:38:33.425Z,39.22
2018-06-28T16:41:01.066Z,40.24
2018-06-28T16:43:28.697Z,39.82
2018-06-28T16:45:56.463Z,39.83
2018-06-28T16:48:24.384Z,39.90
2018-06-28T16:50:52.271Z,39.62
2018-06-28T16:53:20.056Z,39.62
2018-06-28T16:55:47.890Z,39.30
2018-06-28T16:58:15.842Z,39.23
2018-06-28T17:00:44.574Z,39.22
2018-06-28T17:03:14.315Z,39.71
2018-06-28T17:05:41.934Z,39.41
2018-06-28T17:08:09.859Z,38.48
2018-06-28T17:10:37.782Z,38.44
2018-06-28T17:13:05.758Z,38.55
2018-06-28T17:15:33.617Z,37.71
2018-06-28T17:18:01.609Z,38.25
2018-06-28T17:20:29.579Z,37.92
2018-06-28T17:22:57.878Z,38.59
2018-06-28T17:25:25.900Z,38.23
2018-06-28T17:27:54.122Z,37.71
2018-06-28T17:30:22.715Z,37.49
2018-06-28T17:32:50.453Z,37.89
2018-06-28T17:35:18.566Z,37.58
2018-06-28T17:37:46.817Z,37.93
2018-06-28T17:40:14.867Z,37.34
2018-06-28T17:42:42.706Z,37.19
2018-06-28T17:45:10.394Z,37.18
2018-06-28T17:47:38.053Z,37.95
2018-06-28T17:50:05.719Z,37.35
2018-06-28T17:52:33.477Z,36.92
2018-06-28T17:55:01.386Z,36.94
2018-06-28T17:57:29.255Z,36.41
2018-06-28T17:59:56.960Z,36.24
2018-06-28T18:02:25.554Z,36.99
2018-06-28T18:04:53.924Z,37.39
2018-06-28T18:07:21.980Z,36.30
2018-06-28T18:09:49.636Z,36.48
2018-06-28T18:12:17.807Z,36.48
2018-06-28T18:14:45.472Z,36.86
2018-06-28T18:17:13.164Z,37.71
2018-06-28T18:19:41.323Z,37.54
2018-06-28T18:22:08.979Z,37.62
2018-06-28T18:24:37.262Z,38.30
2018-06-28T18:27:05.418Z,38.61
2018-06-28T18:29:33.110Z,38.00
2018-06-28T18:32:00.830Z,39.20
2018-06-28T18:34:29.128Z,39.60
2018-06-28T18:36:56.771Z,39.30
2018-06-28T18:39:24.432Z,38.34
2018-06-28T18:41:52.777Z,38.70
2018-06-28T18:46:45.680Z,38.42
2018-06-28T18:49:13.692Z,38.76
2018-06-28T18:51:41.808Z,38.56
2018-06-28T18:54:09.479Z,39.63
2018-06-28T18:56:37.176Z,38.93
2018-06-28T18:59:05.145Z,39.09
2018-06-28T19:01:32.985Z,40.07
2018-06-28T19:04:01.057Z,39.59
2018-06-28T19:06:28.697Z,39.75
2018-06-28T19:08:56.569Z,39.67
2018-06-28T19:11:24.261Z,40.39
2018-06-28T19:13:57.690Z,40.41
2018-06-28T19:16:30.891Z,41.25
2018-06-28T19:18:58.577Z,41.32
2018-06-28T19:21:32.062Z,41.63
2018-06-28T19:23:59.766Z,41.43
2018-06-28T19:26:27.423Z,42.20
2018-06-28T19:28:55.115Z,42.72
2018-06-28T19:31:28.310Z,43.50
2018-06-28T19:33:56.120Z,42.97
2018-06-28T19:36:23.806Z,43.77
2018-06-28T19:38:57.030Z,44.01
2018-06-28T19:41:32.519Z,42.82
2018-06-28T19:44:00.476Z,46.23
2018-06-28T19:46:28.504Z,45.79
2018-06-28T19:48:56.195Z,45.05
2018-06-28T19:51:29.973Z,44.80
2018-06-28T19:53:57.663Z,45.46
2018-06-28T19:56:25.377Z,44.92
2018-06-28T19:58:53.310Z,45.24
2018-06-28T20:01:26.700Z,45.40
2018-06-28T20:04:00.190Z,45.27
2018-06-28T20:06:27.944Z,45.91
2018-06-28T20:08:55.845Z,45.95
2018-06-28T20:11:23.512Z,45.21
2018-06-28T20:13:56.989Z,46.18
2018-06-28T20:16:30.240Z,45.84
2018-06-28T20:19:03.166Z,46.69
2018-06-28T20:21:31.073Z,46.80
2018-06-28T20:23:59.039Z,46.41
2018-06-28T20:26:32.267Z,46.50
2018-06-28T20:29:05.604Z,46.77
2018-06-28T20:31:39.356Z,46.75
2018-06-28T20:34:10.353Z,46.29
2018-06-28T20:36:37.976Z,46.50
2018-06-28T20:39:07.522Z,47.13
2018-06-28T20:41:35.165Z,46.94
2018-06-28T20:44:03.155Z,47.18
2018-06-28T20:46:30.891Z,47.26
2018-06-28T20:48:58.492Z,47.32
2018-06-28T20:51:26.105Z,47.86
2018-06-28T20:53:54.026Z,47.67
2018-06-28T20:56:22.280Z,47.56
2018-06-28T20:58:50.268Z,48.01
2018-06-28T21:01:17.905Z,47.29
2018-06-28T21:03:45.528Z,48.17
2018-06-28T21:06:15.478Z,47.96
2018-06-28T21:08:45.142Z,48.36
2018-06-28T21:11:13.137Z,48.04
2018-06-28T21:13:41.152Z,47.87
2018-06-28T21:16:08.749Z,48.00
2018-06-28T21:18:36.415Z,47.72
2018-06-28T21:21:04.032Z,47.87
2018-06-28T21:23:31.679Z,48.48
2018-06-28T21:25:59.747Z,48.96
2018-06-28T21:28:27.413Z,48.80
2018-06-28T21:30:55.072Z,48.17
2018-06-28T21:33:22.732Z,48.35
2018-06-28T21:35:50.354Z,48.23
2018-06-28T21:38:18.010Z,49.12
2018-06-28T21:40:45.645Z,48.63
2018-06-28T21:43:13.497Z,48.72
2018-06-28T21:45:41.161Z,48.96
2018-06-28T21:48:08.833Z,48.92
2018-06-28T21:50:36.455Z,49.79
2018-06-28T21:53:04.234Z,49.60
2018-06-28T21:55:31.931Z,49.46
2018-06-28T21:57:59.824Z,49.19
2018-06-28T22:00:30.828Z,49.44
2018-06-28T22:02:59.461Z,48.91
2018-06-28T22:05:27.554Z,49.53
2018-06-28T22:07:55.817Z,49.58
2018-06-28T22:10:23.766Z,49.12
2018-06-28T22:12:51.409Z,49.31
2018-06-28T22:15:33.874Z,49.98
2018-06-28T22:18:02.870Z,49.08
2018-06-28T22:20:31.180Z,49.00
2018-06-28T22:22:59.242Z,49.20
2018-06-28T22:25:28.096Z,49.82
2018-06-28T22:27:55.879Z,49.91
2018-06-28T22:30:23.997Z,49.68
2018-06-28T22:32:51.731Z,49.24
2018-06-28T22:35:19.613Z,49.47
2018-06-28T22:37:47.489Z,49.60
2018-06-28T22:40:15.336Z,50.03
2018-06-28T22:42:43.513Z,50.35
2018-06-28T22:45:11.674Z,50.00
2018-06-28T22:47:39.989Z,49.93
2018-06-28T22:50:08.301Z,49.55
2018-06-28T22:52:35.917Z,49.86
2018-06-28T22:55:04.008Z,50.40
2018-06-28T22:57:31.986Z,51.17
2018-06-28T22:59:59.662Z,50.87
2018-06-28T23:02:27.310Z,51.15
2018-06-28T23:04:55.253Z,51.19
2018-06-28T23:07:23.390Z,50.03
2018-06-28T23:09:51.028Z,50.32
2018-06-28T23:12:18.691Z,50.86
2018-06-28T23:14:46.476Z,50.75
2018-06-28T23:17:14.173Z,50.84
2018-06-28T23:19:41.794Z,50.17
2018-06-28T23:22:18.689Z,51.12
2018-06-28T23:24:46.670Z,50.94
2018-06-28T23:27:14.303Z,51.12
2018-06-28T23:29:42.305Z,50.28
2018-06-28T23:32:10.178Z,50.49
2018-06-28T23:34:38.088Z,51.23
2018-06-28T23:37:05.739Z,50.65
2018-06-28T23:39:33.361Z,51.34
2018-06-28T23:42:01.021Z,51.61
2018-06-28T23:44:29.453Z,50.73
2018-06-28T23:46:57.359Z,50.57
2018-06-28T23:49:25.361Z,51.43
2018-06-28T23:51:53.363Z,51.45
2018-06-28T23:54:21.548Z,51.28
2018-06-28T23:56:49.490Z,50.64
2018-06-28T23:59:17.138Z,51.21
